Time;durP1;ratioP1;P1;durP2;ratioP2;P2;SDS_P1;SDS_P2;PMS_P1;PMS_P2;Temp;Humidity;BMP_temperature;BMP_pressure;BME280_temperature;BME280_humidity;BME280_pressure;Samples;Min_cycle;Max_cycle;Signal;HPM_P1;HPM_P2
2023/01/07 00:00:09;;;;;;;37.53;18.90;;;;;;;;;;5115075;28;20022;-72
2023/01/07 00:02:35;;;;;;;37.35;19.17;;;;;;;;;;5115014;28;20028;-72
2023/01/07 00:05:01;;;;;;;33.72;18.45;;;;;;;;;;5115226;28;20031;-72
2023/01/07 00:07:27;;;;;;;36.28;19.00;;;;;;;;;;5115330;28;20031;-72
2023/01/07 00:09:54;;;;;;;34.53;16.65;;;;;;;;;;5115356;28;20020;-73
2023/01/07 00:12:20;;;;;;;26.75;13.73;;;;;;;;;;5097644;28;20031;-73
2023/01/07 00:14:46;;;;;;;22.55;13.32;;;;;;;;;;5115037;28;20068;-72
2023/01/07 00:17:13;;;;;;;31.98;20.92;;;;;;;;;;5115116;28;20027;-72
2023/01/07 00:19:39;;;;;;;30.95;18.35;;;;;;;;;;5114968;28;20028;-72
2023/01/07 00:22:06;;;;;;;31.58;19.35;;;;;;;;;;5115270;28;20016;-72
2023/01/07 00:24:32;;;;;;;23.67;15.73;;;;;;;;;;5115014;28;20031;-72
2023/01/07 00:26:58;;;;;;;22.27;14.20;;;;;;;;;;5114911;28;20024;-72
2023/01/07 00:29:25;;;;;;;29.00;18.38;;;;;;;;;;5097230;28;20023;-73
2023/01/07 00:31:52;;;;;;;32.30;18.80;;;;;;;;;;5114580;28;20072;-72
2023/01/07 00:34:22;;;;;;;29.70;18.05;;;;;;;;;;5114795;28;20023;-72
2023/01/07 00:36:48;;;;;;;28.83;18.15;;;;;;;;;;5114772;28;20023;-72
2023/01/07 00:39:18;;;;;;;28.60;18.38;;;;;;;;;;5114645;28;20058;-72
2023/01/07 00:44:30;;;;;;;31.08;19.45;;;;;;;;;;5114147;28;20046;-72
2023/01/07 00:46:57;;;;;;;31.15;19.02;;;;;;;;;;5114699;28;20035;-72
2023/01/07 00:49:23;;;;;;;30.33;18.15;;;;;;;;;;5114894;28;20020;-72
2023/01/07 00:51:50;;;;;;;28.95;17.42;;;;;;;;;;5114682;28;20024;-73
2023/01/07 00:54:16;;;;;;;26.65;17.15;;;;;;;;;;5114294;28;20032;-72
2023/01/07 00:56:43;;;;;;;28.05;16.08;;;;;;;;;;5114499;28;20031;-72
2023/01/07 00:59:09;;;;;;;19.88;11.70;;;;;;;;;;5114072;28;20020;-72
2023/01/07 01:01:35;;;;;;;20.38;12.27;;;;;;;;;;5096041;28;20044;-72
2023/01/07 01:04:05;;;;;;;24.00;12.10;;;;;;;;;;5096150;28;20030;-72
2023/01/07 01:06:31;;;;;;;19.05;12.13;;;;;;;;;;5114280;28;20368;-73
2023/01/07 01:08:57;;;;;;;21.83;12.48;;;;;;;;;;5114206;28;20042;-72
2023/01/07 01:11:24;;;;;;;20.50;12.75;;;;;;;;;;5113851;28;20566;-72
2023/01/07 01:13:50;;;;;;;22.33;13.95;;;;;;;;;;5113579;28;20072;-72
2023/01/07 01:16:17;;;;;;;21.45;13.25;;;;;;;;;;5114333;28;20027;-72
2023/01/07 01:18:44;;;;;;;19.02;12.30;;;;;;;;;;5113885;28;20032;-72
2023/01/07 01:21:12;;;;;;;21.60;12.55;;;;;;;;;;5113881;28;20034;-72
2023/01/07 01:23:39;;;;;;;19.10;11.93;;;;;;;;;;5095970;28;20036;-72
2023/01/07 01:26:07;;;;;;;20.10;12.55;;;;;;;;;;5095221;28;20039;-72
2023/01/07 01:28:34;;;;;;;26.73;15.65;;;;;;;;;;5075053;28;20028;-72
2023/01/07 01:31:00;;;;;;;27.65;16.30;;;;;;;;;;5092860;28;20035;-72
2023/01/07 01:33:27;;;;;;;24.08;15.75;;;;;;;;;;5093010;28;20016;-72
2023/01/07 01:35:53;;;;;;;21.30;13.18;;;;;;;;;;5093450;28;20028;-72
2023/01/07 01:38:19;;;;;;;17.98;11.35;;;;;;;;;;5074890;28;20031;-72
2023/01/07 01:40:46;;;;;;;19.98;11.60;;;;;;;;;;5092584;28;20044;-72
2023/01/07 01:43:30;;;;;;;16.80;11.15;;;;;;;;;;5093111;28;20016;-72
2023/01/07 01:46:17;;;;;;;14.43;9.35;;;;;;;;;;5093108;28;20028;-72
2023/01/07 01:48:55;;;;;;;14.15;9.15;;;;;;;;;;5092874;28;20020;-72
2023/01/07 01:51:24;;;;;;;14.90;8.27;;;;;;;;;;5092943;28;20104;-72
2023/01/07 01:53:51;;;;;;;14.68;9.18;;;;;;;;;;5093217;28;20392;-72
2023/01/07 01:56:18;;;;;;;14.70;9.02;;;;;;;;;;5092109;28;20031;-72
2023/01/07 01:58:47;;;;;;;13.20;8.68;;;;;;;;;;5092413;28;20036;-72
2023/01/07 02:01:14;;;;;;;14.73;9.00;;;;;;;;;;5092935;28;20030;-72
2023/01/07 02:03:40;;;;;;;16.33;8.77;;;;;;;;;;5092741;28;20032;-72
2023/01/07 02:06:09;;;;;;;18.08;8.85;;;;;;;;;;5092459;28;20100;-72
2023/01/07 02:08:35;;;;;;;14.55;8.40;;;;;;;;;;5092690;28;20495;-72
2023/01/07 02:11:04;;;;;;;15.98;9.40;;;;;;;;;;5092516;28;20038;-72
2023/01/07 02:13:36;;;;;;;14.00;8.88;;;;;;;;;;5092650;28;20028;-72
2023/01/07 02:16:12;;;;;;;14.27;8.55;;;;;;;;;;5092641;28;20024;-73
2023/01/07 02:18:54;;;;;;;14.90;8.70;;;;;;;;;;5092629;28;20020;-72
2023/01/07 02:21:20;;;;;;;15.23;8.70;;;;;;;;;;5093023;28;20598;-72
2023/01/07 02:23:50;;;;;;;12.65;8.27;;;;;;;;;;5092526;28;20016;-72
2023/01/07 02:26:34;;;;;;;13.93;8.80;;;;;;;;;;5109002;28;20036;-72
2023/01/07 02:29:19;;;;;;;13.27;8.63;;;;;;;;;;5112792;28;20370;-72
2023/01/07 02:31:58;;;;;;;14.02;8.60;;;;;;;;;;5113014;28;20030;-72
2023/01/07 02:34:47;;;;;;;15.32;8.82;;;;;;;;;;5112916;28;20028;-72
2023/01/07 02:37:14;;;;;;;13.27;7.68;;;;;;;;;;5049704;28;20043;-72
2023/01/07 02:39:53;;;;;;;14.27;8.40;;;;;;;;;;5049777;28;20549;-73
2023/01/07 02:42:22;;;;;;;16.75;10.02;;;;;;;;;;5049774;28;20041;-72
2023/01/07 02:45:09;;;;;;;17.40;9.57;;;;;;;;;;5049918;28;20037;-72
2023/01/07 02:47:37;;;;;;;15.50;9.38;;;;;;;;;;5042873;28;20433;-72
2023/01/07 02:50:06;;;;;;;14.73;8.52;;;;;;;;;;5050387;28;20033;-72
2023/01/07 02:52:33;;;;;;;16.42;8.80;;;;;;;;;;5050201;28;20029;-72
2023/01/07 02:55:04;;;;;;;14.48;8.63;;;;;;;;;;5050207;28;20041;-72
2023/01/07 02:57:33;;;;;;;11.88;7.68;;;;;;;;;;5049465;28;20583;-72
2023/01/07 03:00:24;;;;;;;14.23;8.80;;;;;;;;;;5049811;28;20539;-72
2023/01/07 03:02:53;;;;;;;15.13;9.02;;;;;;;;;;5049684;28;20404;-72
2023/01/07 03:05:22;;;;;;;14.98;8.77;;;;;;;;;;5049338;28;20088;-73
2023/01/07 03:08:04;;;;;;;15.15;9.20;;;;;;;;;;5051234;28;20037;-72
2023/01/07 03:10:36;;;;;;;17.08;9.65;;;;;;;;;;5053417;28;20094;-72
2023/01/07 03:13:08;;;;;;;18.27;9.23;;;;;;;;;;5054478;28;20027;-72
2023/01/07 03:15:34;;;;;;;15.18;9.00;;;;;;;;;;5116267;28;20031;-72
2023/01/07 03:18:02;;;;;;;15.13;9.32;;;;;;;;;;5098185;28;20027;-72
2023/01/07 03:20:30;;;;;;;15.73;9.32;;;;;;;;;;5116318;28;20023;-73
2023/01/07 03:22:57;;;;;;;15.90;9.35;;;;;;;;;;5116414;28;20027;-72
2023/01/07 03:25:26;;;;;;;17.35;9.45;;;;;;;;;;5115361;28;20437;-72
2023/01/07 03:27:53;;;;;;;16.88;9.43;;;;;;;;;;5116050;28;20016;-72
2023/01/07 03:30:19;;;;;;;21.48;10.13;;;;;;;;;;5116132;28;20024;-72
2023/01/07 03:32:49;;;;;;;15.75;8.90;;;;;;;;;;5115992;28;20026;-72
2023/01/07 03:35:15;;;;;;;17.55;9.38;;;;;;;;;;5115691;28;20020;-72
2023/01/07 03:37:42;;;;;;;16.27;8.52;;;;;;;;;;5115991;28;20030;-72
2023/01/07 03:40:09;;;;;;;13.73;8.25;;;;;;;;;;5115277;28;20054;-72
2023/01/07 03:42:38;;;;;;;16.42;8.95;;;;;;;;;;5116241;28;20032;-72
2023/01/07 03:45:07;;;;;;;17.52;8.48;;;;;;;;;;5115575;28;20045;-72
2023/01/07 03:47:34;;;;;;;12.73;8.15;;;;;;;;;;5115518;28;20016;-72
2023/01/07 03:50:01;;;;;;;14.43;8.18;;;;;;;;;;5115445;28;20036;-72
2023/01/07 03:52:27;;;;;;;12.85;8.20;;;;;;;;;;5115476;28;20468;-72
2023/01/07 03:54:54;;;;;;;14.20;8.48;;;;;;;;;;5114838;28;20024;-72
2023/01/07 03:57:20;;;;;;;12.70;8.10;;;;;;;;;;5115592;28;20031;-72
2023/01/07 03:59:46;;;;;;;11.93;7.70;;;;;;;;;;5115636;28;20020;-72
2023/01/07 04:02:12;;;;;;;12.30;8.55;;;;;;;;;;5096760;28;20476;-72
2023/01/07 04:04:39;;;;;;;15.00;7.93;;;;;;;;;;5115524;28;20028;-72
2023/01/07 04:07:05;;;;;;;15.82;9.93;;;;;;;;;;5115072;28;20058;-72
2023/01/07 04:09:31;;;;;;;16.58;9.63;;;;;;;;;;5115046;28;20024;-72
2023/01/07 04:11:58;;;;;;;11.65;8.00;;;;;;;;;;5114919;28;20032;-72
2023/01/07 04:14:24;;;;;;;12.88;7.90;;;;;;;;;;5114857;28;20015;-73
2023/01/07 04:16:50;;;;;;;13.38;7.32;;;;;;;;;;5115334;28;20024;-72
2023/01/07 04:19:17;;;;;;;10.95;6.68;;;;;;;;;;5114137;28;20484;-72
2023/01/07 04:21:43;;;;;;;11.35;6.68;;;;;;;;;;5114788;28;20026;-72
2023/01/07 04:24:10;;;;;;;11.75;6.70;;;;;;;;;;5114539;28;20034;-71
2023/01/07 04:26:36;;;;;;;15.23;6.53;;;;;;;;;;5114422;28;20027;-71
2023/01/07 04:29:02;;;;;;;13.68;7.53;;;;;;;;;;5114577;28;20034;-72
2023/01/07 04:31:29;;;;;;;15.77;10.35;;;;;;;;;;5114410;28;20032;-72
2023/01/07 04:33:55;;;;;;;17.15;9.98;;;;;;;;;;5114669;28;20488;-72
2023/01/07 04:36:21;;;;;;;20.90;13.20;;;;;;;;;;5096459;28;20027;-72
2023/01/07 04:38:47;;;;;;;18.00;11.95;;;;;;;;;;5114295;28;20034;-72
2023/01/07 04:41:14;;;;;;;19.27;11.63;;;;;;;;;;5114520;28;20399;-72
2023/01/07 04:43:40;;;;;;;24.27;13.70;;;;;;;;;;5114659;28;20027;-72
2023/01/07 04:46:06;;;;;;;21.05;11.85;;;;;;;;;;5114213;28;20032;-72
2023/01/07 04:48:33;;;;;;;18.90;11.77;;;;;;;;;;5114751;28;20026;-72
2023/01/07 04:50:59;;;;;;;15.98;10.68;;;;;;;;;;5114220;28;20024;-72
2023/01/07 04:53:26;;;;;;;16.23;10.52;;;;;;;;;;5114111;28;20012;-73
2023/01/07 04:55:52;;;;;;;12.68;8.40;;;;;;;;;;5114460;28;20026;-72
2023/01/07 04:58:19;;;;;;;16.67;9.50;;;;;;;;;;5113828;28;20483;-72
2023/01/07 05:00:45;;;;;;;15.05;9.02;;;;;;;;;;5113679;28;20526;-72
2023/01/07 05:03:12;;;;;;;15.43;9.10;;;;;;;;;;5113765;28;20020;-72
2023/01/07 05:05:38;;;;;;;14.75;9.55;;;;;;;;;;5113142;28;20036;-72
2023/01/07 05:08:05;;;;;;;13.90;9.57;;;;;;;;;;5113640;28;20022;-72
2023/01/07 05:10:31;;;;;;;14.15;9.05;;;;;;;;;;5113885;28;20031;-72
2023/01/07 05:12:58;;;;;;;12.40;8.70;;;;;;;;;;5114048;28;20536;-72
2023/01/07 05:15:24;;;;;;;12.52;8.18;;;;;;;;;;5114003;28;20510;-72
2023/01/07 05:17:51;;;;;;;11.77;7.50;;;;;;;;;;5113916;28;20019;-72
2023/01/07 05:20:17;;;;;;;15.38;8.73;;;;;;;;;;5113460;28;20019;-72
2023/01/07 05:22:45;;;;;;;21.50;11.77;;;;;;;;;;5095679;28;20024;-72
2023/01/07 05:25:11;;;;;;;17.65;11.00;;;;;;;;;;5113319;28;20442;-72
2023/01/07 05:27:38;;;;;;;18.10;11.70;;;;;;;;;;5113703;28;20492;-73
2023/01/07 05:30:04;;;;;;;19.58;11.77;;;;;;;;;;5113514;28;20020;-72
2023/01/07 05:32:30;;;;;;;18.80;11.85;;;;;;;;;;5113907;28;20026;-72
2023/01/07 05:34:57;;;;;;;17.10;11.82;;;;;;;;;;5113189;28;20020;-72
2023/01/07 05:37:24;;;;;;;16.70;11.80;;;;;;;;;;5113912;28;20065;-72
2023/01/07 05:39:50;;;;;;;17.67;10.15;;;;;;;;;;5113294;28;20043;-72
2023/01/07 05:42:16;;;;;;;18.17;9.43;;;;;;;;;;5113218;28;20030;-72
2023/01/07 05:44:43;;;;;;;13.93;8.95;;;;;;;;;;5113602;28;20030;-72
2023/01/07 05:47:09;;;;;;;13.18;7.47;;;;;;;;;;5113443;28;20034;-72
2023/01/07 05:49:35;;;;;;;10.18;6.85;;;;;;;;;;5113192;28;20022;-72
2023/01/07 05:52:02;;;;;;;11.32;6.63;;;;;;;;;;5113172;28;20089;-72
2023/01/07 05:54:28;;;;;;;10.93;6.82;;;;;;;;;;5113484;28;20011;-72
2023/01/07 05:56:54;;;;;;;9.75;6.20;;;;;;;;;;5113163;28;20034;-72
2023/01/07 05:59:20;;;;;;;9.23;6.55;;;;;;;;;;5095158;28;20488;-71
2023/01/07 06:01:47;;;;;;;14.40;6.13;;;;;;;;;;5113364;28;20024;-72
2023/01/07 06:04:13;;;;;;;8.25;5.18;;;;;;;;;;5112777;28;20020;-72
2023/01/07 06:06:40;;;;;;;7.90;5.45;;;;;;;;;;5113648;28;20042;-72
2023/01/07 06:09:06;;;;;;;7.47;4.40;;;;;;;;;;5113019;28;20030;-72
2023/01/07 06:11:32;;;;;;;8.05;4.10;;;;;;;;;;5112935;28;20027;-72
2023/01/07 06:13:59;;;;;;;6.00;3.80;;;;;;;;;;5112909;28;20373;-72
2023/01/07 06:16:25;;;;;;;6.13;3.80;;;;;;;;;;5112578;28;20022;-72
2023/01/07 06:18:51;;;;;;;5.20;3.65;;;;;;;;;;5112626;28;20036;-73
2023/01/07 06:21:18;;;;;;;6.68;3.95;;;;;;;;;;5113147;28;20020;-72
2023/01/07 06:23:44;;;;;;;6.45;3.60;;;;;;;;;;5095016;28;20031;-72
2023/01/07 06:26:10;;;;;;;8.55;4.20;;;;;;;;;;5112567;28;20031;-72
2023/01/07 06:28:36;;;;;;;9.73;4.53;;;;;;;;;;5112884;28;20024;-72
2023/01/07 06:31:03;;;;;;;6.55;4.07;;;;;;;;;;5112267;28;20422;-73
2023/01/07 06:33:29;;;;;;;5.05;3.50;;;;;;;;;;5112689;28;20088;-72
2023/01/07 06:35:55;;;;;;;6.25;3.55;;;;;;;;;;5112752;28;20012;-72
2023/01/07 06:38:22;;;;;;;7.05;3.65;;;;;;;;;;5112652;28;20012;-72
2023/01/07 06:40:48;;;;;;;6.25;3.35;;;;;;;;;;5094213;28;20040;-72
2023/01/07 06:43:14;;;;;;;6.90;3.55;;;;;;;;;;5115280;28;20016;-72
2023/01/07 06:45:41;;;;;;;5.32;3.42;;;;;;;;;;5116823;28;20036;-72
2023/01/07 06:48:07;;;;;;;5.60;3.97;;;;;;;;;;5116562;28;20076;-72
2023/01/07 06:50:33;;;;;;;6.68;4.38;;;;;;;;;;5116460;28;20464;-72
2023/01/07 06:53:00;;;;;;;6.88;4.70;;;;;;;;;;5116908;28;20016;-72
2023/01/07 06:55:26;;;;;;;8.30;5.35;;;;;;;;;;5116400;28;20403;-72
2023/01/07 06:57:52;;;;;;;5.68;4.57;;;;;;;;;;5116657;28;20019;-72
2023/01/07 07:00:19;;;;;;;7.85;4.50;;;;;;;;;;5116177;28;20030;-72
2023/01/07 07:02:45;;;;;;;4.95;3.80;;;;;;;;;;5116072;28;20019;-72
2023/01/07 07:05:11;;;;;;;6.03;3.63;;;;;;;;;;5116272;28;20039;-72
2023/01/07 07:07:38;;;;;;;4.10;3.53;;;;;;;;;;5115979;28;20030;-72
2023/01/07 07:10:06;;;;;;;4.15;3.30;;;;;;;;;;5116509;28;20024;-73
2023/01/07 07:12:33;;;;;;;6.78;3.85;;;;;;;;;;5116480;28;20020;-72
2023/01/07 07:14:59;;;;;;;5.20;3.25;;;;;;;;;;5115932;28;20034;-72
2023/01/07 07:17:25;;;;;;;4.15;3.05;;;;;;;;;;5097685;28;20023;-72
2023/01/07 07:19:52;;;;;;;5.38;3.30;;;;;;;;;;5116187;28;20030;-72
2023/01/07 07:22:18;;;;;;;4.15;3.33;;;;;;;;;;5115613;28;20026;-72
2023/01/07 07:24:44;;;;;;;6.75;3.22;;;;;;;;;;5116156;28;20049;-72
2023/01/07 07:27:10;;;;;;;4.75;3.78;;;;;;;;;;5114723;28;20043;-72
2023/01/07 07:29:37;;;;;;;4.28;3.08;;;;;;;;;;5114740;28;20031;-72
2023/01/07 07:32:03;;;;;;;6.43;3.00;;;;;;;;;;5115417;28;20032;-72
2023/01/07 07:34:29;;;;;;;5.50;3.33;;;;;;;;;;5115839;28;20548;-72
2023/01/07 07:36:56;;;;;;;4.30;3.17;;;;;;;;;;5115898;28;20034;-72
2023/01/07 07:39:22;;;;;;;4.28;3.17;;;;;;;;;;5115446;28;20046;-72
2023/01/07 07:41:48;;;;;;;4.32;2.95;;;;;;;;;;5115692;28;20084;-72
2023/01/07 07:44:15;;;;;;;5.07;3.30;;;;;;;;;;5115523;28;20028;-72
2023/01/07 07:46:41;;;;;;;6.15;2.83;;;;;;;;;;5115161;28;20429;-72
2023/01/07 07:49:07;;;;;;;4.57;2.95;;;;;;;;;;5115298;28;20399;-72
2023/01/07 07:51:34;;;;;;;4.15;3.25;;;;;;;;;;5115581;28;20387;-72
2023/01/07 07:54:00;;;;;;;5.75;3.08;;;;;;;;;;5114280;28;20016;-72
2023/01/07 07:56:26;;;;;;;3.80;3.22;;;;;;;;;;5115242;28;20028;-72
2023/01/07 07:58:52;;;;;;;4.75;3.55;;;;;;;;;;5115375;28;20049;-72
2023/01/07 08:01:19;;;;;;;6.03;3.60;;;;;;;;;;5096531;28;20017;-72
2023/01/07 08:03:45;;;;;;;4.57;3.53;;;;;;;;;;5097117;28;20060;-72
2023/01/07 08:06:12;;;;;;;4.55;3.58;;;;;;;;;;5114859;28;20040;-72
2023/01/07 08:08:39;;;;;;;3.58;2.70;;;;;;;;;;5115001;28;20088;-72
2023/01/07 08:11:05;;;;;;;4.70;2.78;;;;;;;;;;5114708;28;20020;-72
2023/01/07 08:13:31;;;;;;;6.20;2.88;;;;;;;;;;5114890;28;20024;-73
2023/01/07 08:15:57;;;;;;;3.70;2.83;;;;;;;;;;5114329;28;20026;-73
2023/01/07 08:18:24;;;;;;;6.13;3.15;;;;;;;;;;5114609;28;20022;-72
2023/01/07 08:20:50;;;;;;;5.68;3.17;;;;;;;;;;5114792;28;20032;-72
2023/01/07 08:23:17;;;;;;;3.42;2.42;;;;;;;;;;5114743;28;20022;-73
2023/01/07 08:25:43;;;;;;;3.40;2.90;;;;;;;;;;5114533;28;20039;-72
2023/01/07 08:28:10;;;;;;;5.05;2.97;;;;;;;;;;5114573;28;20027;-72
2023/01/07 08:30:37;;;;;;;3.55;2.80;;;;;;;;;;5114117;28;20414;-72
2023/01/07 08:33:04;;;;;;;5.78;3.22;;;;;;;;;;5096448;28;20024;-72
2023/01/07 08:35:31;;;;;;;8.38;2.97;;;;;;;;;;5114341;28;20426;-72
2023/01/07 08:38:01;;;;;;;4.85;2.58;;;;;;;;;;5114368;28;20022;-72
2023/01/07 08:40:28;;;;;;;9.38;3.53;;;;;;;;;;5114312;28;20054;-72
2023/01/07 08:42:57;;;;;;;4.10;2.42;;;;;;;;;;5114295;28;20020;-72
2023/01/07 08:45:23;;;;;;;5.70;2.65;;;;;;;;;;5113683;28;20398;-72
2023/01/07 08:47:49;;;;;;;3.63;2.58;;;;;;;;;;5114157;28;20369;-72
2023/01/07 08:50:16;;;;;;;2.75;2.17;;;;;;;;;;5113875;28;20496;-72
2023/01/07 08:52:45;;;;;;;3.53;2.80;;;;;;;;;;5114203;28;20027;-70
2023/01/07 08:55:11;;;;;;;5.15;2.80;;;;;;;;;;5114247;28;20023;-70
2023/01/07 08:57:37;;;;;;;3.70;2.67;;;;;;;;;;5113407;28;20031;-70
2023/01/07 09:00:04;;;;;;;6.97;2.63;;;;;;;;;;5113797;28;20383;-70
2023/01/07 09:02:30;;;;;;;3.50;2.67;;;;;;;;;;5114227;28;20019;-70
2023/01/07 09:04:57;;;;;;;3.13;2.20;;;;;;;;;;5113414;28;20581;-71
2023/01/07 09:07:23;;;;;;;3.45;2.33;;;;;;;;;;5113609;28;20483;-72
2023/01/07 09:09:49;;;;;;;5.78;2.47;;;;;;;;;;5113626;28;20033;-72
2023/01/07 09:12:15;;;;;;;2.58;2.38;;;;;;;;;;5113183;28;20020;-72
2023/01/07 09:14:42;;;;;;;4.22;3.05;;;;;;;;;;5113552;28;20038;-73
2023/01/07 09:17:08;;;;;;;4.57;2.72;;;;;;;;;;5113671;28;20030;-72
2023/01/07 09:19:35;;;;;;;5.15;3.00;;;;;;;;;;5113515;28;20031;-72
2023/01/07 09:22:01;;;;;;;6.00;3.50;;;;;;;;;;5113284;28;20015;-72
2023/01/07 09:24:27;;;;;;;5.18;3.80;;;;;;;;;;5113354;28;20035;-73
2023/01/07 09:26:53;;;;;;;6.55;3.58;;;;;;;;;;5112819;28;20379;-73
2023/01/07 09:29:20;;;;;;;5.97;3.45;;;;;;;;;;5113273;28;20016;-73
2023/01/07 09:31:46;;;;;;;4.00;3.00;;;;;;;;;;5113532;28;20035;-71
2023/01/07 09:34:12;;;;;;;4.22;3.20;;;;;;;;;;5113007;28;20503;-70
2023/01/07 09:36:39;;;;;;;4.50;3.30;;;;;;;;;;5113568;28;20020;-70
2023/01/07 09:39:05;;;;;;;5.32;2.90;;;;;;;;;;5113248;28;20043;-70
2023/01/07 09:41:38;;;;;;;3.38;2.70;;;;;;;;;;5112942;28;20027;-71
2023/01/07 09:44:28;;;;;;;6.43;3.58;;;;;;;;;;5113221;28;20019;-70
2023/01/07 09:46:57;;;;;;;6.72;4.07;;;;;;;;;;5050078;28;20049;-70
2023/01/07 09:49:25;;;;;;;5.75;3.70;;;;;;;;;;5049993;28;20524;-70
2023/01/07 09:51:57;;;;;;;6.22;3.33;;;;;;;;;;5050163;28;20044;-70
2023/01/07 09:54:36;;;;;;;18.83;7.30;;;;;;;;;;5050108;28;20021;-70
2023/01/07 09:57:03;;;;;;;11.25;5.32;;;;;;;;;;5049568;28;20048;-72
2023/01/07 09:59:29;;;;;;;5.95;4.32;;;;;;;;;;5033229;28;20031;-72
2023/01/07 10:02:14;;;;;;;7.28;4.90;;;;;;;;;;5050081;28;20041;-72
2023/01/07 10:04:48;;;;;;;8.80;4.97;;;;;;;;;;5049912;28;20041;-72
2023/01/07 10:07:33;;;;;;;9.07;5.57;;;;;;;;;;5050034;28;20029;-72
2023/01/07 10:10:26;;;;;;;8.50;5.60;;;;;;;;;;5049824;28;20451;-72
2023/01/07 10:12:52;;;;;;;10.95;6.35;;;;;;;;;;5049786;28;20387;-73
2023/01/07 10:15:18;;;;;;;19.95;10.10;;;;;;;;;;5050157;28;20025;-72
2023/01/07 10:17:47;;;;;;;17.52;7.75;;;;;;;;;;5048933;28;20394;-72
2023/01/07 10:20:32;;;;;;;11.05;5.45;;;;;;;;;;5049861;28;20028;-72
2023/01/07 10:23:02;;;;;;;11.60;7.15;;;;;;;;;;5057762;28;20448;-72
2023/01/07 10:25:31;;;;;;;13.20;7.50;;;;;;;;;;5111942;28;20049;-72
2023/01/07 10:27:59;;;;;;;7.50;4.28;;;;;;;;;;5112589;28;20028;-72
2023/01/07 10:30:28;;;;;;;5.63;4.15;;;;;;;;;;5112811;28;20030;-72
2023/01/07 10:33:13;;;;;;;8.43;4.72;;;;;;;;;;5112249;28;20023;-72
2023/01/07 10:35:40;;;;;;;6.43;3.33;;;;;;;;;;5112776;28;20072;-73
2023/01/07 10:38:11;;;;;;;4.70;3.38;;;;;;;;;;5094230;28;20024;-70
2023/01/07 10:40:42;;;;;;;3.53;2.90;;;;;;;;;;5111951;28;20048;-70
2023/01/07 10:43:08;;;;;;;6.18;2.75;;;;;;;;;;5112724;28;20038;-70
2023/01/07 10:46:04;;;;;;;4.68;2.90;;;;;;;;;;5112628;28;20047;-71
2023/01/07 10:49:06;;;;;;;6.75;3.63;;;;;;;;;;5049594;28;20039;-70
2023/01/07 10:51:35;;;;;;;4.78;2.45;;;;;;;;;;5009963;28;20052;-71
2023/01/07 10:54:23;;;;;;;4.30;2.35;;;;;;;;;;5009715;28;20042;-71
2023/01/07 10:56:51;;;;;;;4.85;2.53;;;;;;;;;;5009846;28;20018;-70
2023/01/07 10:59:19;;;;;;;6.13;2.55;;;;;;;;;;5010014;28;20077;-71
2023/01/07 11:01:48;;;;;;;2.22;1.63;;;;;;;;;;5009853;28;20433;-70
2023/01/07 11:04:15;;;;;;;4.45;2.63;;;;;;;;;;5009979;28;20044;-71
2023/01/07 11:06:44;;;;;;;4.65;2.25;;;;;;;;;;5009756;28;20404;-71
2023/01/07 11:09:13;;;;;;;3.72;1.85;;;;;;;;;;5009706;28;20030;-73
2023/01/07 11:11:40;;;;;;;2.97;1.98;;;;;;;;;;5009666;28;20044;-71
2023/01/07 11:14:10;;;;;;;2.72;1.75;;;;;;;;;;5009857;28;20029;-71
2023/01/07 11:16:42;;;;;;;2.83;1.80;;;;;;;;;;5010219;28;20022;-70
2023/01/07 11:19:09;;;;;;;2.00;1.60;;;;;;;;;;5009641;28;20391;-71
2023/01/07 11:21:37;;;;;;;2.88;2.03;;;;;;;;;;5009677;28;20036;-71
2023/01/07 11:24:18;;;;;;;3.75;2.00;;;;;;;;;;5015483;28;20079;-70
2023/01/07 11:26:45;;;;;;;3.97;2.08;;;;;;;;;;5096562;28;20034;-71
2023/01/07 11:29:14;;;;;;;3.85;1.80;;;;;;;;;;5113887;28;20035;-71
2023/01/07 11:31:43;;;;;;;4.00;2.33;;;;;;;;;;5115599;28;20030;-70
2023/01/07 11:34:26;;;;;;;4.20;1.75;;;;;;;;;;5115466;28;20023;-71
2023/01/07 11:36:53;;;;;;;3.17;2.00;;;;;;;;;;5115564;28;20035;-70
2023/01/07 11:39:21;;;;;;;4.90;2.05;;;;;;;;;;5114824;28;20411;-71
2023/01/07 11:41:56;;;;;;;3.97;2.10;;;;;;;;;;5115457;28;20020;-71
2023/01/07 11:44:22;;;;;;;3.50;2.15;;;;;;;;;;5115334;28;20035;-71
2023/01/07 11:46:49;;;;;;;3.35;2.03;;;;;;;;;;5115498;28;20072;-71
2023/01/07 11:49:41;;;;;;;3.60;1.77;;;;;;;;;;5115264;28;20026;-71
2023/01/07 11:52:16;;;;;;;4.53;2.00;;;;;;;;;;5112057;28;20040;-71
2023/01/07 11:54:42;;;;;;;3.70;2.05;;;;;;;;;;5115201;28;20544;-71
2023/01/07 11:57:13;;;;;;;5.43;1.73;;;;;;;;;;5115329;28;20020;-71
2023/01/07 11:59:39;;;;;;;;;;;;;;;;;;5115673;28;20031;-71
2023/01/07 12:02:21;;;;;;;5.15;1.83;;;;;;;;;;5114980;28;19904;-71
2023/01/07 12:04:47;;;;;;;4.28;2.20;;;;;;;;;;5114901;28;20028;-70
2023/01/07 12:07:15;;;;;;;5.63;2.30;;;;;;;;;;5114687;28;20499;-71
2023/01/07 12:09:42;;;;;;;3.90;2.10;;;;;;;;;;5114954;28;20024;-71
2023/01/07 12:12:38;;;;;;;4.47;2.00;;;;;;;;;;5115214;28;20024;-71
2023/01/07 12:15:19;;;;;;;4.80;2.30;;;;;;;;;;5114909;28;20034;-70
2023/01/07 12:17:47;;;;;;;5.78;2.20;;;;;;;;;;5114930;28;20026;-70
2023/01/07 12:20:13;;;;;;;4.57;2.30;;;;;;;;;;5114856;28;20080;-71
2023/01/07 12:22:42;;;;;;;4.35;2.50;;;;;;;;;;5114513;28;20023;-70
2023/01/07 12:25:12;;;;;;;3.40;2.00;;;;;;;;;;5114359;28;20030;-70
2023/01/07 12:27:44;;;;;;;3.40;2.38;;;;;;;;;;5114520;28;20028;-71
2023/01/07 12:30:17;;;;;;;4.25;2.38;;;;;;;;;;5114477;28;20028;-70
2023/01/07 12:32:57;;;;;;;6.70;2.47;;;;;;;;;;5114878;28;20030;-71
2023/01/07 12:35:25;;;;;;;6.93;3.53;;;;;;;;;;5114201;28;20484;-70
2023/01/07 12:37:58;;;;;;;4.68;2.80;;;;;;;;;;5114577;28;20506;-70
2023/01/07 12:40:33;;;;;;;7.82;2.80;;;;;;;;;;5113584;28;20039;-71
2023/01/07 12:43:19;;;;;;;6.10;3.13;;;;;;;;;;5114369;28;20020;-70
2023/01/07 12:45:53;;;;;;;9.43;3.63;;;;;;;;;;5114115;28;20391;-71
2023/01/07 12:48:41;;;;;;;6.50;3.00;;;;;;;;;;5114118;28;20486;-70
2023/01/07 12:51:14;;;;;;;5.50;2.85;;;;;;;;;;5113528;28;20031;-70
2023/01/07 12:53:47;;;;;;;6.95;3.33;;;;;;;;;;5095895;28;20032;-70
2023/01/07 12:56:17;;;;;;;7.40;3.40;;;;;;;;;;5114239;28;20016;-70
2023/01/07 12:58:47;;;;;;;5.77;3.17;;;;;;;;;;5095780;28;20015;-71
2023/01/07 13:01:18;;;;;;;6.28;2.85;;;;;;;;;;5113828;28;20023;-70
2023/01/07 13:03:44;;;;;;;10.48;4.03;;;;;;;;;;5113910;28;20030;-70
2023/01/07 13:06:22;;;;;;;7.70;3.30;;;;;;;;;;5113332;28;20039;-70
2023/01/07 13:08:57;;;;;;;5.10;3.08;;;;;;;;;;5113552;28;20024;-70
2023/01/07 13:14:37;;;;;;;10.10;3.42;;;;;;;;;;5050519;28;20037;-70
2023/01/07 13:17:13;;;;;;;7.22;3.35;;;;;;;;;;5043009;28;20031;-70
2023/01/07 13:19:40;;;;;;;7.28;3.30;;;;;;;;;;5050630;28;20040;-70
2023/01/07 13:22:11;;;;;;;7.65;3.20;;;;;;;;;;5050585;28;20029;-70
2023/01/07 13:24:40;;;;;;;5.75;2.55;;;;;;;;;;5050452;28;20025;-71
2023/01/07 13:27:23;;;;;;;5.95;2.90;;;;;;;;;;5034040;28;20039;-71
2023/01/07 13:30:08;;;;;;;4.85;2.80;;;;;;;;;;5034255;28;20036;-70
2023/01/07 13:32:44;;;;;;;4.65;3.03;;;;;;;;;;5050710;28;20037;-71
2023/01/07 13:35:25;;;;;;;4.43;2.75;;;;;;;;;;5050057;28;20029;-71
2023/01/07 13:38:10;;;;;;;5.00;2.88;;;;;;;;;;5050371;28;20544;-70
2023/01/07 13:40:44;;;;;;;5.32;2.78;;;;;;;;;;5050189;28;20537;-70
2023/01/07 13:43:13;;;;;;;5.07;2.85;;;;;;;;;;5050376;28;20031;-69
2023/01/07 13:45:40;;;;;;;7.43;3.50;;;;;;;;;;5050098;28;20143;-70
2023/01/07 13:48:16;;;;;;;6.65;3.00;;;;;;;;;;5049807;28;20029;-70
2023/01/07 13:50:44;;;;;;;5.82;2.75;;;;;;;;;;5060210;28;20027;-71
2023/01/07 13:53:16;;;;;;;4.57;2.53;;;;;;;;;;5092646;28;20028;-70
2023/01/07 13:55:44;;;;;;;4.50;2.53;;;;;;;;;;5092867;28;20058;-70
2023/01/07 13:58:29;;;;;;;4.53;2.45;;;;;;;;;;5092344;28;20024;-70
2023/01/07 14:01:06;;;;;;;4.70;2.58;;;;;;;;;;5092270;28;20522;-70
2023/01/07 14:03:34;;;;;;;7.00;2.60;;;;;;;;;;5092193;28;20030;-71
2023/01/07 14:06:18;;;;;;;4.05;2.30;;;;;;;;;;5092225;28;20496;-71
2023/01/07 14:08:49;;;;;;;5.38;2.40;;;;;;;;;;5092423;28;20020;-70
2023/01/07 14:11:16;;;;;;;6.90;2.47;;;;;;;;;;5092363;28;20017;-70
2023/01/07 14:14:08;;;;;;;4.38;2.30;;;;;;;;;;5092590;28;20032;-70
2023/01/07 14:17:00;;;;;;;5.00;2.42;;;;;;;;;;5090082;28;20040;-70
2023/01/07 14:19:26;;;;;;;4.82;2.67;;;;;;;;;;5092337;28;20042;-71
2023/01/07 14:22:11;;;;;;;4.45;2.40;;;;;;;;;;5092447;28;20032;-71
2023/01/07 14:24:43;;;;;;;4.95;2.22;;;;;;;;;;5095513;28;20383;-71
2023/01/07 14:27:38;;;;;;;4.38;2.72;;;;;;;;;;5094204;28;20045;-71
2023/01/07 14:30:15;;;;;;;4.95;2.55;;;;;;;;;;5112316;28;20020;-70
2023/01/07 14:32:41;;;;;;;4.55;2.60;;;;;;;;;;5112079;28;20030;-71
2023/01/07 14:35:11;;;;;;;4.78;2.30;;;;;;;;;;5094282;28;20030;-71
2023/01/07 14:37:43;;;;;;;7.00;2.30;;;;;;;;;;5112501;28;20028;-70
2023/01/07 14:40:25;;;;;;;8.57;2.33;;;;;;;;;;5112109;28;20044;-71
2023/01/07 14:42:55;;;;;;;8.90;2.45;;;;;;;;;;5112382;28;20023;-70
2023/01/07 14:45:53;;;;;;;5.93;2.40;;;;;;;;;;5112427;28;20419;-70
2023/01/07 14:48:40;;;;;;;6.80;2.63;;;;;;;;;;5049511;28;20059;-70
2023/01/07 14:51:22;;;;;;;10.00;2.90;;;;;;;;;;5049507;28;20401;-71
2023/01/07 14:54:14;;;;;;;10.63;2.65;;;;;;;;;;5033021;28;20029;-70
2023/01/07 14:56:58;;;;;;;6.32;2.20;;;;;;;;;;5049539;28;20068;-70